sensor_id;sensor_type;location;lat;lon;timestamp;P1;durP1;ratioP1;P2;durP2;ratioP2
55300;SDS011;58302;51.446;-2.000;2023-06-14T00:02:11;7.65;;;6.00;;
55300;SDS011;58302;51.446;-2.000;2023-06-14T00:04:37;7.35;;;5.55;;
55300;SDS011;58302;51.446;-2.000;2023-06-14T00:07:05;7.43;;;6.38;;
55300;SDS011;58302;51.446;-2.000;2023-06-14T00:09:34;7.78;;;5.93;;
55300;SDS011;58302;51.446;-2.000;2023-06-14T00:12:00;9.00;;;6.28;;
55300;SDS011;58302;51.446;-2.000;2023-06-14T00:14:27;8.63;;;6.00;;
55300;SDS011;58302;51.446;-2.000;2023-06-14T00:16:53;8.38;;;6.90;;
55300;SDS011;58302;51.446;-2.000;2023-06-14T00:19:24;10.23;;;6.07;;
55300;SDS011;58302;51.446;-2.000;2023-06-14T00:21:50;9.77;;;6.85;;
55300;SDS011;58302;51.446;-2.000;2023-06-14T00:24:18;9.98;;;6.30;;
55300;SDS011;58302;51.446;-2.000;2023-06-14T00:26:45;7.93;;;6.03;;
55300;SDS011;58302;51.446;-2.000;2023-06-14T00:29:11;8.35;;;6.43;;
55300;SDS011;58302;51.446;-2.000;2023-06-14T00:31:37;9.48;;;6.80;;
55300;SDS011;58302;51.446;-2.000;2023-06-14T00:34:03;6.57;;;5.93;;
55300;SDS011;58302;51.446;-2.000;2023-06-14T00:36:29;10.73;;;6.95;;
55300;SDS011;58302;51.446;-2.000;2023-06-14T00:38:55;8.88;;;6.72;;
55300;SDS011;58302;51.446;-2.000;2023-06-14T00:41:21;9.23;;;6.05;;
55300;SDS011;58302;51.446;-2.000;2023-06-14T00:43:47;8.15;;;6.43;;
55300;SDS011;58302;51.446;-2.000;2023-06-14T00:46:12;7.22;;;6.40;;
55300;SDS011;58302;51.446;-2.000;2023-06-14T00:48:38;8.50;;;6.65;;
55300;SDS011;58302;51.446;-2.000;2023-06-14T00:51:05;8.35;;;6.70;;
55300;SDS011;58302;51.446;-2.000;2023-06-14T00:53:32;8.75;;;6.25;;
55300;SDS011;58302;51.446;-2.000;2023-06-14T00:56:01;8.15;;;6.30;;
55300;SDS011;58302;51.446;-2.000;2023-06-14T00:58:27;11.55;;;6.95;;
55300;SDS011;58302;51.446;-2.000;2023-06-14T01:00:54;9.95;;;6.30;;
55300;SDS011;58302;51.446;-2.000;2023-06-14T01:03:20;10.15;;;6.95;;
55300;SDS011;58302;51.446;-2.000;2023-06-14T01:05:49;7.70;;;6.35;;
55300;SDS011;58302;51.446;-2.000;2023-06-14T01:08:37;8.50;;;6.60;;
55300;SDS011;58302;51.446;-2.000;2023-06-14T01:11:16;8.70;;;6.20;;
55300;SDS011;58302;51.446;-2.000;2023-06-14T01:13:48;9.52;;;6.50;;
55300;SDS011;58302;51.446;-2.000;2023-06-14T01:16:16;9.30;;;6.53;;
55300;SDS011;58302;51.446;-2.000;2023-06-14T01:18:42;8.43;;;6.35;;
55300;SDS011;58302;51.446;-2.000;2023-06-14T01:21:20;8.27;;;5.60;;
55300;SDS011;58302;51.446;-2.000;2023-06-14T01:23:50;8.13;;;6.68;;
55300;SDS011;58302;51.446;-2.000;2023-06-14T01:26:20;7.15;;;5.80;;
55300;SDS011;58302;51.446;-2.000;2023-06-14T01:28:48;8.60;;;5.45;;
55300;SDS011;58302;51.446;-2.000;2023-06-14T01:31:20;7.82;;;5.13;;
55300;SDS011;58302;51.446;-2.000;2023-06-14T01:33:50;8.90;;;6.80;;
55300;SDS011;58302;51.446;-2.000;2023-06-14T01:36:18;7.57;;;6.75;;
55300;SDS011;58302;51.446;-2.000;2023-06-14T01:38:47;6.95;;;5.95;;
55300;SDS011;58302;51.446;-2.000;2023-06-14T01:41:15;10.55;;;7.03;;
55300;SDS011;58302;51.446;-2.000;2023-06-14T01:43:44;11.35;;;6.57;;
55300;SDS011;58302;51.446;-2.000;2023-06-14T01:46:13;8.95;;;6.53;;
55300;SDS011;58302;51.446;-2.000;2023-06-14T01:48:40;8.25;;;6.50;;
55300;SDS011;58302;51.446;-2.000;2023-06-14T01:51:07;10.68;;;6.40;;
55300;SDS011;58302;51.446;-2.000;2023-06-14T01:53:33;8.85;;;6.88;;
55300;SDS011;58302;51.446;-2.000;2023-06-14T01:55:59;10.13;;;7.05;;
55300;SDS011;58302;51.446;-2.000;2023-06-14T01:58:25;10.57;;;6.45;;
55300;SDS011;58302;51.446;-2.000;2023-06-14T02:00:51;8.40;;;6.25;;
55300;SDS011;58302;51.446;-2.000;2023-06-14T02:03:21;9.43;;;6.38;;
55300;SDS011;58302;51.446;-2.000;2023-06-14T02:05:47;10.98;;;6.90;;
55300;SDS011;58302;51.446;-2.000;2023-06-14T02:08:12;6.60;;;5.68;;
55300;SDS011;58302;51.446;-2.000;2023-06-14T02:10:38;7.90;;;6.28;;
55300;SDS011;58302;51.446;-2.000;2023-06-14T02:13:04;7.03;;;5.45;;
55300;SDS011;58302;51.446;-2.000;2023-06-14T02:15:30;8.55;;;6.32;;
55300;SDS011;58302;51.446;-2.000;2023-06-14T02:18:00;7.35;;;5.78;;
55300;SDS011;58302;51.446;-2.000;2023-06-14T02:20:29;8.15;;;5.53;;
55300;SDS011;58302;51.446;-2.000;2023-06-14T02:22:56;9.38;;;6.10;;
55300;SDS011;58302;51.446;-2.000;2023-06-14T02:25:23;7.95;;;5.30;;
55300;SDS011;58302;51.446;-2.000;2023-06-14T02:27:49;8.07;;;5.47;;
55300;SDS011;58302;51.446;-2.000;2023-06-14T02:30:15;7.18;;;5.28;;
55300;SDS011;58302;51.446;-2.000;2023-06-14T02:32:42;7.45;;;5.03;;
55300;SDS011;58302;51.446;-2.000;2023-06-14T02:35:08;10.63;;;5.85;;
55300;SDS011;58302;51.446;-2.000;2023-06-14T02:37:34;8.32;;;5.63;;
55300;SDS011;58302;51.446;-2.000;2023-06-14T02:40:00;7.13;;;5.47;;
55300;SDS011;58302;51.446;-2.000;2023-06-14T02:42:26;5.78;;;5.15;;
55300;SDS011;58302;51.446;-2.000;2023-06-14T02:44:52;6.78;;;5.13;;
55300;SDS011;58302;51.446;-2.000;2023-06-14T02:47:18;8.45;;;4.45;;
55300;SDS011;58302;51.446;-2.000;2023-06-14T02:49:44;7.68;;;4.78;;
55300;SDS011;58302;51.446;-2.000;2023-06-14T02:52:14;7.95;;;4.93;;
55300;SDS011;58302;51.446;-2.000;2023-06-14T02:54:40;6.75;;;4.60;;
55300;SDS011;58302;51.446;-2.000;2023-06-14T02:57:07;5.95;;;4.65;;
55300;SDS011;58302;51.446;-2.000;2023-06-14T02:59:33;7.78;;;4.57;;
55300;SDS011;58302;51.446;-2.000;2023-06-14T03:02:00;6.90;;;4.57;;
55300;SDS011;58302;51.446;-2.000;2023-06-14T03:04:26;7.43;;;4.10;;
55300;SDS011;58302;51.446;-2.000;2023-06-14T03:06:54;6.70;;;3.97;;
55300;SDS011;58302;51.446;-2.000;2023-06-14T03:09:21;8.68;;;3.63;;
55300;SDS011;58302;51.446;-2.000;2023-06-14T03:11:47;5.57;;;3.88;;
55300;SDS011;58302;51.446;-2.000;2023-06-14T03:14:13;6.28;;;3.47;;
55300;SDS011;58302;51.446;-2.000;2023-06-14T03:16:39;5.88;;;3.95;;
55300;SDS011;58302;51.446;-2.000;2023-06-14T03:19:06;6.30;;;3.58;;
55300;SDS011;58302;51.446;-2.000;2023-06-14T03:21:32;6.90;;;4.57;;
55300;SDS011;58302;51.446;-2.000;2023-06-14T03:24:00;6.50;;;3.63;;
55300;SDS011;58302;51.446;-2.000;2023-06-14T03:26:26;5.93;;;3.70;;
55300;SDS011;58302;51.446;-2.000;2023-06-14T03:28:52;6.45;;;3.35;;
55300;SDS011;58302;51.446;-2.000;2023-06-14T03:31:18;6.25;;;3.70;;
55300;SDS011;58302;51.446;-2.000;2023-06-14T03:33:44;4.90;;;3.45;;
55300;SDS011;58302;51.446;-2.000;2023-06-14T03:36:10;12.13;;;5.10;;
55300;SDS011;58302;51.446;-2.000;2023-06-14T03:38:36;4.57;;;3.20;;
55300;SDS011;58302;51.446;-2.000;2023-06-14T03:41:02;7.30;;;3.67;;
55300;SDS011;58302;51.446;-2.000;2023-06-14T03:43:28;6.93;;;3.58;;
55300;SDS011;58302;51.446;-2.000;2023-06-14T03:45:55;6.05;;;3.38;;
55300;SDS011;58302;51.446;-2.000;2023-06-14T03:48:21;6.65;;;3.88;;
55300;SDS011;58302;51.446;-2.000;2023-06-14T03:50:47;4.75;;;3.45;;
55300;SDS011;58302;51.446;-2.000;2023-06-14T03:53:13;5.50;;;3.47;;
55300;SDS011;58302;51.446;-2.000;2023-06-14T03:55:40;5.90;;;3.63;;
55300;SDS011;58302;51.446;-2.000;2023-06-14T03:58:07;7.43;;;3.40;;
55300;SDS011;58302;51.446;-2.000;2023-06-14T04:00:33;5.40;;;3.80;;
55300;SDS011;58302;51.446;-2.000;2023-06-14T04:02:59;5.63;;;3.55;;
55300;SDS011;58302;51.446;-2.000;2023-06-14T04:05:25;9.82;;;4.47;;
55300;SDS011;58302;51.446;-2.000;2023-06-14T04:07:54;13.40;;;4.75;;
55300;SDS011;58302;51.446;-2.000;2023-06-14T04:10:21;8.07;;;3.95;;
55300;SDS011;58302;51.446;-2.000;2023-06-14T04:12:47;9.15;;;3.80;;
55300;SDS011;58302;51.446;-2.000;2023-06-14T04:15:13;6.13;;;4.30;;
55300;SDS011;58302;51.446;-2.000;2023-06-14T04:17:39;6.93;;;4.18;;
55300;SDS011;58302;51.446;-2.000;2023-06-14T04:20:05;6.88;;;4.05;;
55300;SDS011;58302;51.446;-2.000;2023-06-14T04:22:34;10.07;;;4.80;;
55300;SDS011;58302;51.446;-2.000;2023-06-14T04:25:00;7.35;;;3.75;;
55300;SDS011;58302;51.446;-2.000;2023-06-14T04:27:26;4.25;;;3.28;;
55300;SDS011;58302;51.446;-2.000;2023-06-14T04:29:56;6.22;;;3.95;;
55300;SDS011;58302;51.446;-2.000;2023-06-14T04:32:24;6.80;;;4.78;;
55300;SDS011;58302;51.446;-2.000;2023-06-14T04:34:53;5.47;;;4.70;;
55300;SDS011;58302;51.446;-2.000;2023-06-14T04:37:23;7.35;;;4.25;;
55300;SDS011;58302;51.446;-2.000;2023-06-14T04:39:49;5.35;;;4.22;;
55300;SDS011;58302;51.446;-2.000;2023-06-14T04:42:16;7.43;;;3.97;;
55300;SDS011;58302;51.446;-2.000;2023-06-14T04:44:42;9.02;;;4.18;;
55300;SDS011;58302;51.446;-2.000;2023-06-14T04:47:12;8.52;;;4.63;;
55300;SDS011;58302;51.446;-2.000;2023-06-14T04:49:40;6.28;;;3.80;;
55300;SDS011;58302;51.446;-2.000;2023-06-14T04:52:06;8.00;;;4.10;;
55300;SDS011;58302;51.446;-2.000;2023-06-14T04:54:36;8.48;;;4.68;;
55300;SDS011;58302;51.446;-2.000;2023-06-14T04:57:07;12.02;;;4.93;;
55300;SDS011;58302;51.446;-2.000;2023-06-14T04:59:34;7.30;;;4.20;;
55300;SDS011;58302;51.446;-2.000;2023-06-14T05:02:01;8.07;;;4.78;;
55300;SDS011;58302;51.446;-2.000;2023-06-14T05:04:27;5.97;;;4.18;;
55300;SDS011;58302;51.446;-2.000;2023-06-14T05:06:53;7.55;;;3.92;;
55300;SDS011;58302;51.446;-2.000;2023-06-14T05:09:23;7.28;;;4.00;;
55300;SDS011;58302;51.446;-2.000;2023-06-14T05:11:49;6.95;;;4.43;;
55300;SDS011;58302;51.446;-2.000;2023-06-14T05:14:16;8.07;;;4.47;;
55300;SDS011;58302;51.446;-2.000;2023-06-14T05:16:43;13.55;;;4.80;;
55300;SDS011;58302;51.446;-2.000;2023-06-14T05:19:09;9.15;;;3.95;;
55300;SDS011;58302;51.446;-2.000;2023-06-14T05:21:36;6.57;;;4.35;;
55300;SDS011;58302;51.446;-2.000;2023-06-14T05:24:02;8.20;;;4.35;;
55300;SDS011;58302;51.446;-2.000;2023-06-14T05:26:29;7.75;;;5.00;;
55300;SDS011;58302;51.446;-2.000;2023-06-14T05:28:55;10.05;;;4.90;;
55300;SDS011;58302;51.446;-2.000;2023-06-14T05:31:23;8.95;;;4.90;;
55300;SDS011;58302;51.446;-2.000;2023-06-14T05:33:50;6.20;;;4.20;;
55300;SDS011;58302;51.446;-2.000;2023-06-14T05:36:16;6.18;;;4.07;;
55300;SDS011;58302;51.446;-2.000;2023-06-14T05:38:42;13.00;;;5.03;;
55300;SDS011;58302;51.446;-2.000;2023-06-14T05:41:08;13.18;;;5.38;;
55300;SDS011;58302;51.446;-2.000;2023-06-14T05:43:34;13.07;;;4.72;;
55300;SDS011;58302;51.446;-2.000;2023-06-14T05:46:00;8.13;;;4.10;;
55300;SDS011;58302;51.446;-2.000;2023-06-14T05:48:26;6.18;;;5.13;;
55300;SDS011;58302;51.446;-2.000;2023-06-14T05:50:52;6.47;;;4.05;;
55300;SDS011;58302;51.446;-2.000;2023-06-14T05:53:18;6.90;;;4.35;;
55300;SDS011;58302;51.446;-2.000;2023-06-14T05:55:44;7.55;;;4.60;;
55300;SDS011;58302;51.446;-2.000;2023-06-14T05:58:09;8.02;;;5.13;;
55300;SDS011;58302;51.446;-2.000;2023-06-14T06:00:36;7.50;;;4.70;;
55300;SDS011;58302;51.446;-2.000;2023-06-14T06:03:02;6.75;;;4.55;;
55300;SDS011;58302;51.446;-2.000;2023-06-14T06:05:28;10.45;;;4.60;;
55300;SDS011;58302;51.446;-2.000;2023-06-14T06:07:54;7.97;;;4.18;;
55300;SDS011;58302;51.446;-2.000;2023-06-14T06:10:20;6.68;;;3.90;;
55300;SDS011;58302;51.446;-2.000;2023-06-14T06:12:46;8.52;;;4.88;;
55300;SDS011;58302;51.446;-2.000;2023-06-14T06:15:13;8.07;;;4.68;;
55300;SDS011;58302;51.446;-2.000;2023-06-14T06:17:39;5.72;;;3.63;;
55300;SDS011;58302;51.446;-2.000;2023-06-14T06:20:05;10.50;;;5.55;;
55300;SDS011;58302;51.446;-2.000;2023-06-14T06:22:34;4.70;;;3.63;;
55300;SDS011;58302;51.446;-2.000;2023-06-14T06:25:00;5.80;;;3.80;;
55300;SDS011;58302;51.446;-2.000;2023-06-14T06:27:26;6.38;;;4.63;;
55300;SDS011;58302;51.446;-2.000;2023-06-14T06:29:52;10.20;;;4.13;;
55300;SDS011;58302;51.446;-2.000;2023-06-14T06:32:18;10.18;;;4.35;;
55300;SDS011;58302;51.446;-2.000;2023-06-14T06:34:44;7.43;;;4.07;;
55300;SDS011;58302;51.446;-2.000;2023-06-14T06:37:10;10.60;;;4.90;;
55300;SDS011;58302;51.446;-2.000;2023-06-14T06:39:36;6.40;;;4.80;;
55300;SDS011;58302;51.446;-2.000;2023-06-14T06:42:02;6.05;;;4.05;;
55300;SDS011;58302;51.446;-2.000;2023-06-14T06:44:29;4.55;;;3.17;;
55300;SDS011;58302;51.446;-2.000;2023-06-14T06:46:54;6.63;;;3.50;;
55300;SDS011;58302;51.446;-2.000;2023-06-14T06:49:20;5.50;;;3.38;;
55300;SDS011;58302;51.446;-2.000;2023-06-14T06:51:59;5.53;;;3.22;;
55300;SDS011;58302;51.446;-2.000;2023-06-14T06:54:32;6.82;;;3.70;;
55300;SDS011;58302;51.446;-2.000;2023-06-14T06:56:58;4.95;;;3.80;;
55300;SDS011;58302;51.446;-2.000;2023-06-14T06:59:25;5.80;;;3.63;;
55300;SDS011;58302;51.446;-2.000;2023-06-14T07:01:51;5.82;;;3.25;;
55300;SDS011;58302;51.446;-2.000;2023-06-14T07:04:17;5.25;;;3.22;;
55300;SDS011;58302;51.446;-2.000;2023-06-14T07:06:43;6.32;;;4.05;;
55300;SDS011;58302;51.446;-2.000;2023-06-14T07:09:09;6.35;;;3.63;;
55300;SDS011;58302;51.446;-2.000;2023-06-14T07:11:40;8.40;;;4.03;;
55300;SDS011;58302;51.446;-2.000;2023-06-14T07:14:07;6.03;;;3.50;;
55300;SDS011;58302;51.446;-2.000;2023-06-14T07:16:33;6.05;;;3.13;;
55300;SDS011;58302;51.446;-2.000;2023-06-14T07:18:59;6.97;;;3.92;;
55300;SDS011;58302;51.446;-2.000;2023-06-14T07:21:26;12.07;;;4.43;;
55300;SDS011;58302;51.446;-2.000;2023-06-14T07:23:52;9.13;;;4.18;;
55300;SDS011;58302;51.446;-2.000;2023-06-14T07:26:19;7.28;;;3.67;;
55300;SDS011;58302;51.446;-2.000;2023-06-14T07:28:45;7.40;;;3.78;;
55300;SDS011;58302;51.446;-2.000;2023-06-14T07:31:12;6.47;;;3.75;;
55300;SDS011;58302;51.446;-2.000;2023-06-14T07:33:39;9.30;;;3.40;;
55300;SDS011;58302;51.446;-2.000;2023-06-14T07:36:05;9.65;;;3.80;;
55300;SDS011;58302;51.446;-2.000;2023-06-14T07:38:31;6.10;;;3.70;;
55300;SDS011;58302;51.446;-2.000;2023-06-14T07:40:57;4.40;;;2.53;;
55300;SDS011;58302;51.446;-2.000;2023-06-14T07:43:23;5.78;;;3.17;;
55300;SDS011;58302;51.446;-2.000;2023-06-14T07:45:49;6.18;;;3.13;;
55300;SDS011;58302;51.446;-2.000;2023-06-14T07:48:15;7.32;;;4.35;;
55300;SDS011;58302;51.446;-2.000;2023-06-14T07:50:41;5.68;;;3.70;;
55300;SDS011;58302;51.446;-2.000;2023-06-14T07:53:07;8.65;;;3.10;;
55300;SDS011;58302;51.446;-2.000;2023-06-14T07:55:33;5.32;;;3.42;;
55300;SDS011;58302;51.446;-2.000;2023-06-14T07:58:08;11.55;;;3.22;;
55300;SDS011;58302;51.446;-2.000;2023-06-14T08:00:34;5.22;;;3.25;;
55300;SDS011;58302;51.446;-2.000;2023-06-14T08:03:00;6.07;;;3.40;;
55300;SDS011;58302;51.446;-2.000;2023-06-14T08:05:27;5.00;;;2.88;;
55300;SDS011;58302;51.446;-2.000;2023-06-14T08:07:53;4.63;;;3.15;;
55300;SDS011;58302;51.446;-2.000;2023-06-14T08:10:20;5.03;;;3.67;;
55300;SDS011;58302;51.446;-2.000;2023-06-14T08:12:47;5.45;;;3.08;;
55300;SDS011;58302;51.446;-2.000;2023-06-14T08:15:17;6.18;;;3.72;;
55300;SDS011;58302;51.446;-2.000;2023-06-14T08:17:43;7.80;;;3.33;;
55300;SDS011;58302;51.446;-2.000;2023-06-14T08:20:10;4.72;;;3.20;;
55300;SDS011;58302;51.446;-2.000;2023-06-14T08:22:37;8.10;;;3.40;;
55300;SDS011;58302;51.446;-2.000;2023-06-14T08:25:03;5.22;;;2.97;;
55300;SDS011;58302;51.446;-2.000;2023-06-14T08:27:30;10.05;;;4.03;;
55300;SDS011;58302;51.446;-2.000;2023-06-14T08:29:56;5.75;;;3.53;;
55300;SDS011;58302;51.446;-2.000;2023-06-14T08:32:22;7.57;;;2.80;;
55300;SDS011;58302;51.446;-2.000;2023-06-14T08:34:48;4.90;;;3.28;;
55300;SDS011;58302;51.446;-2.000;2023-06-14T08:37:14;4.03;;;2.60;;
55300;SDS011;58302;51.446;-2.000;2023-06-14T08:39:40;7.13;;;3.05;;
55300;SDS011;58302;51.446;-2.000;2023-06-14T08:42:07;8.23;;;3.28;;
55300;SDS011;58302;51.446;-2.000;2023-06-14T08:44:34;6.90;;;3.47;;
55300;SDS011;58302;51.446;-2.000;2023-06-14T08:47:00;7.05;;;3.53;;
55300;SDS011;58302;51.446;-2.000;2023-06-14T08:49:26;7.22;;;3.40;;
55300;SDS011;58302;51.446;-2.000;2023-06-14T08:51:55;4.93;;;2.97;;
55300;SDS011;58302;51.446;-2.000;2023-06-14T08:54:23;3.28;;;2.97;;
55300;SDS011;58302;51.446;-2.000;2023-06-14T08:56:58;6.80;;;3.17;;
55300;SDS011;58302;51.446;-2.000;2023-06-14T08:59:25;5.93;;;2.78;;
55300;SDS011;58302;51.446;-2.000;2023-06-14T09:01:52;9.48;;;3.35;;
55300;SDS011;58302;51.446;-2.000;2023-06-14T09:04:23;7.22;;;3.10;;
55300;SDS011;58302;51.446;-2.000;2023-06-14T09:06:55;8.15;;;3.90;;
55300;SDS011;58302;51.446;-2.000;2023-06-14T09:09:22;7.40;;;3.58;;
55300;SDS011;58302;51.446;-2.000;2023-06-14T09:11:51;5.90;;;2.80;;
55300;SDS011;58302;51.446;-2.000;2023-06-14T09:14:18;9.27;;;4.22;;
55300;SDS011;58302;51.446;-2.000;2023-06-14T09:16:44;4.90;;;2.67;;
55300;SDS011;58302;51.446;-2.000;2023-06-14T09:19:20;11.07;;;3.72;;
55300;SDS011;58302;51.446;-2.000;2023-06-14T09:21:50;7.18;;;2.88;;
55300;SDS011;58302;51.446;-2.000;2023-06-14T09:24:18;3.58;;;2.55;;
55300;SDS011;58302;51.446;-2.000;2023-06-14T09:26:48;11.80;;;4.00;;
55300;SDS011;58302;51.446;-2.000;2023-06-14T09:29:15;5.72;;;3.13;;
55300;SDS011;58302;51.446;-2.000;2023-06-14T09:31:42;6.78;;;2.92;;
55300;SDS011;58302;51.446;-2.000;2023-06-14T09:34:08;5.40;;;2.65;;
55300;SDS011;58302;51.446;-2.000;2023-06-14T09:36:34;5.18;;;2.97;;
55300;SDS011;58302;51.446;-2.000;2023-06-14T09:39:02;8.50;;;3.53;;
55300;SDS011;58302;51.446;-2.000;2023-06-14T09:44:04;3.63;;;2.58;;
55300;SDS011;58302;51.446;-2.000;2023-06-14T09:46:32;4.90;;;2.53;;
55300;SDS011;58302;51.446;-2.000;2023-06-14T09:48:59;5.22;;;3.05;;
55300;SDS011;58302;51.446;-2.000;2023-06-14T09:51:26;3.83;;;2.58;;
55300;SDS011;58302;51.446;-2.000;2023-06-14T09:53:55;5.20;;;2.58;;
55300;SDS011;58302;51.446;-2.000;2023-06-14T09:56:27;7.15;;;3.10;;
55300;SDS011;58302;51.446;-2.000;2023-06-14T09:58:59;4.00;;;2.67;;
55300;SDS011;58302;51.446;-2.000;2023-06-14T10:01:26;5.03;;;2.67;;
55300;SDS011;58302;51.446;-2.000;2023-06-14T10:06:30;5.78;;;2.85;;
55300;SDS011;58302;51.446;-2.000;2023-06-14T10:08:57;4.25;;;2.50;;
55300;SDS011;58302;51.446;-2.000;2023-06-14T10:11:27;3.22;;;2.50;;
55300;SDS011;58302;51.446;-2.000;2023-06-14T10:13:57;4.50;;;2.85;;
55300;SDS011;58302;51.446;-2.000;2023-06-14T10:18:59;6.93;;;2.78;;
55300;SDS011;58302;51.446;-2.000;2023-06-14T10:21:48;5.50;;;2.58;;
55300;SDS011;58302;51.446;-2.000;2023-06-14T10:24:23;4.72;;;2.50;;
55300;SDS011;58302;51.446;-2.000;2023-06-14T10:26:56;5.47;;;2.55;;
55300;SDS011;58302;51.446;-2.000;2023-06-14T10:29:23;5.43;;;2.67;;
55300;SDS011;58302;51.446;-2.000;2023-06-14T10:31:49;3.95;;;2.88;;
55300;SDS011;58302;51.446;-2.000;2023-06-14T10:37:12;6.43;;;2.72;;
55300;SDS011;58302;51.446;-2.000;2023-06-14T10:39:40;4.22;;;2.50;;
55300;SDS011;58302;51.446;-2.000;2023-06-14T10:42:08;5.00;;;2.70;;
55300;SDS011;58302;51.446;-2.000;2023-06-14T10:52:40;4.95;;;2.92;;
55300;SDS011;58302;51.446;-2.000;2023-06-14T10:55:16;3.92;;;2.58;;
55300;SDS011;58302;51.446;-2.000;2023-06-14T10:57:45;3.47;;;2.70;;
55300;SDS011;58302;51.446;-2.000;2023-06-14T11:00:18;2.90;;;2.25;;
55300;SDS011;58302;51.446;-2.000;2023-06-14T11:05:29;3.20;;;2.83;;
55300;SDS011;58302;51.446;-2.000;2023-06-14T11:08:10;4.07;;;3.10;;
55300;SDS011;58302;51.446;-2.000;2023-06-14T11:10:47;5.70;;;3.80;;
55300;SDS011;58302;51.446;-2.000;2023-06-14T11:13:15;4.63;;;2.83;;
55300;SDS011;58302;51.446;-2.000;2023-06-14T11:15:45;4.03;;;2.53;;
55300;SDS011;58302;51.446;-2.000;2023-06-14T11:18:13;9.18;;;3.65;;
55300;SDS011;58302;51.446;-2.000;2023-06-14T11:20:40;7.18;;;3.75;;
55300;SDS011;58302;51.446;-2.000;2023-06-14T11:23:06;4.35;;;3.08;;
55300;SDS011;58302;51.446;-2.000;2023-06-14T11:25:32;7.05;;;3.42;;
55300;SDS011;58302;51.446;-2.000;2023-06-14T11:27:59;6.32;;;2.88;;
55300;SDS011;58302;51.446;-2.000;2023-06-14T11:30:51;4.07;;;2.83;;
55300;SDS011;58302;51.446;-2.000;2023-06-14T11:33:25;4.65;;;2.88;;
55300;SDS011;58302;51.446;-2.000;2023-06-14T11:35:52;5.65;;;3.50;;
55300;SDS011;58302;51.446;-2.000;2023-06-14T11:38:22;3.83;;;3.20;;
55300;SDS011;58302;51.446;-2.000;2023-06-14T11:40:48;5.22;;;3.20;;
55300;SDS011;58302;51.446;-2.000;2023-06-14T11:43:14;5.10;;;3.50;;
55300;SDS011;58302;51.446;-2.000;2023-06-14T11:45:40;7.13;;;4.03;;
55300;SDS011;58302;51.446;-2.000;2023-06-14T11:48:06;5.50;;;3.22;;
55300;SDS011;58302;51.446;-2.000;2023-06-14T11:50:37;4.57;;;3.08;;
55300;SDS011;58302;51.446;-2.000;2023-06-14T11:53:04;5.05;;;3.28;;
55300;SDS011;58302;51.446;-2.000;2023-06-14T11:55:36;4.65;;;3.03;;
55300;SDS011;58302;51.446;-2.000;2023-06-14T11:58:06;5.22;;;4.10;;
55300;SDS011;58302;51.446;-2.000;2023-06-14T12:00:34;6.55;;;3.58;;
55300;SDS011;58302;51.446;-2.000;2023-06-14T12:03:01;5.72;;;3.42;;
55300;SDS011;58302;51.446;-2.000;2023-06-14T12:05:32;4.50;;;3.40;;
55300;SDS011;58302;51.446;-2.000;2023-06-14T12:07:59;4.05;;;3.30;;
55300;SDS011;58302;51.446;-2.000;2023-06-14T12:10:27;6.85;;;4.20;;
55300;SDS011;58302;51.446;-2.000;2023-06-14T12:12:58;6.47;;;3.67;;
55300;SDS011;58302;51.446;-2.000;2023-06-14T12:15:24;7.90;;;4.15;;
55300;SDS011;58302;51.446;-2.000;2023-06-14T12:17:55;5.95;;;3.92;;
55300;SDS011;58302;51.446;-2.000;2023-06-14T12:20:21;4.93;;;3.92;;
55300;SDS011;58302;51.446;-2.000;2023-06-14T12:22:54;6.78;;;3.80;;
55300;SDS011;58302;51.446;-2.000;2023-06-14T12:28:09;6.97;;;3.88;;
55300;SDS011;58302;51.446;-2.000;2023-06-14T12:33:01;7.30;;;4.57;;
55300;SDS011;58302;51.446;-2.000;2023-06-14T12:35:28;6.03;;;3.53;;
55300;SDS011;58302;51.446;-2.000;2023-06-14T12:37:54;5.00;;;4.07;;
55300;SDS011;58302;51.446;-2.000;2023-06-14T12:40:22;6.07;;;4.20;;
55300;SDS011;58302;51.446;-2.000;2023-06-14T12:42:48;4.60;;;4.10;;
55300;SDS011;58302;51.446;-2.000;2023-06-14T12:45:14;7.30;;;4.63;;
55300;SDS011;58302;51.446;-2.000;2023-06-14T12:47:41;4.70;;;4.05;;
55300;SDS011;58302;51.446;-2.000;2023-06-14T12:50:08;4.55;;;3.95;;
55300;SDS011;58302;51.446;-2.000;2023-06-14T12:52:36;9.43;;;5.20;;
55300;SDS011;58302;51.446;-2.000;2023-06-14T12:55:05;5.43;;;4.03;;
55300;SDS011;58302;51.446;-2.000;2023-06-14T12:57:32;6.38;;;4.57;;
55300;SDS011;58302;51.446;-2.000;2023-06-14T12:59:59;6.38;;;4.60;;
55300;SDS011;58302;51.446;-2.000;2023-06-14T13:02:25;6.65;;;4.40;;
55300;SDS011;58302;51.446;-2.000;2023-06-14T13:04:52;5.65;;;4.20;;
55300;SDS011;58302;51.446;-2.000;2023-06-14T13:07:18;7.55;;;4.03;;
55300;SDS011;58302;51.446;-2.000;2023-06-14T13:09:44;5.18;;;4.00;;
55300;SDS011;58302;51.446;-2.000;2023-06-14T13:12:11;5.07;;;4.07;;
55300;SDS011;58302;51.446;-2.000;2023-06-14T13:14:38;4.93;;;3.80;;
55300;SDS011;58302;51.446;-2.000;2023-06-14T13:17:07;4.65;;;3.80;;
55300;SDS011;58302;51.446;-2.000;2023-06-14T13:19:34;8.02;;;4.88;;
55300;SDS011;58302;51.446;-2.000;2023-06-14T13:22:00;6.43;;;4.78;;
55300;SDS011;58302;51.446;-2.000;2023-06-14T13:24:26;5.60;;;3.95;;
55300;SDS011;58302;51.446;-2.000;2023-06-14T13:26:54;6.75;;;4.20;;
55300;SDS011;58302;51.446;-2.000;2023-06-14T13:29:20;6.45;;;4.90;;
55300;SDS011;58302;51.446;-2.000;2023-06-14T13:31:46;4.90;;;4.40;;
55300;SDS011;58302;51.446;-2.000;2023-06-14T13:34:12;6.53;;;4.05;;
55300;SDS011;58302;51.446;-2.000;2023-06-14T13:36:38;6.25;;;4.65;;
55300;SDS011;58302;51.446;-2.000;2023-06-14T13:39:05;5.80;;;4.25;;
55300;SDS011;58302;51.446;-2.000;2023-06-14T13:41:31;7.78;;;4.63;;
55300;SDS011;58302;51.446;-2.000;2023-06-14T13:44:00;5.78;;;4.18;;
55300;SDS011;58302;51.446;-2.000;2023-06-14T13:46:26;5.28;;;4.45;;
55300;SDS011;58302;51.446;-2.000;2023-06-14T13:48:55;4.65;;;3.80;;
55300;SDS011;58302;51.446;-2.000;2023-06-14T13:51:21;5.15;;;3.97;;
55300;SDS011;58302;51.446;-2.000;2023-06-14T13:53:48;4.60;;;4.15;;
55300;SDS011;58302;51.446;-2.000;2023-06-14T13:56:15;5.15;;;4.30;;
55300;SDS011;58302;51.446;-2.000;2023-06-14T13:58:41;10.57;;;5.07;;
55300;SDS011;58302;51.446;-2.000;2023-06-14T14:01:07;5.63;;;4.40;;
55300;SDS011;58302;51.446;-2.000;2023-06-14T14:03:34;7.25;;;5.07;;
55300;SDS011;58302;51.446;-2.000;2023-06-14T14:06:00;6.22;;;4.70;;
55300;SDS011;58302;51.446;-2.000;2023-06-14T14:08:27;4.72;;;4.00;;
55300;SDS011;58302;51.446;-2.000;2023-06-14T14:10:54;6.10;;;3.97;;
55300;SDS011;58302;51.446;-2.000;2023-06-14T14:13:20;6.22;;;4.43;;
55300;SDS011;58302;51.446;-2.000;2023-06-14T14:15:46;7.47;;;4.68;;
55300;SDS011;58302;51.446;-2.000;2023-06-14T14:18:14;8.27;;;4.80;;
55300;SDS011;58302;51.446;-2.000;2023-06-14T14:20:41;5.35;;;4.85;;
55300;SDS011;58302;51.446;-2.000;2023-06-14T14:23:07;5.80;;;4.93;;
55300;SDS011;58302;51.446;-2.000;2023-06-14T14:25:33;5.65;;;4.97;;
55300;SDS011;58302;51.446;-2.000;2023-06-14T14:27:58;6.15;;;4.25;;
55300;SDS011;58302;51.446;-2.000;2023-06-14T14:30:24;6.38;;;4.30;;
55300;SDS011;58302;51.446;-2.000;2023-06-14T14:32:51;7.90;;;4.55;;
55300;SDS011;58302;51.446;-2.000;2023-06-14T14:35:18;6.85;;;4.65;;
55300;SDS011;58302;51.446;-2.000;2023-06-14T14:37:44;6.07;;;4.80;;
55300;SDS011;58302;51.446;-2.000;2023-06-14T14:40:11;6.70;;;4.85;;
55300;SDS011;58302;51.446;-2.000;2023-06-14T14:42:37;5.18;;;4.15;;
55300;SDS011;58302;51.446;-2.000;2023-06-14T14:45:03;8.10;;;4.60;;
55300;SDS011;58302;51.446;-2.000;2023-06-14T14:47:29;6.25;;;4.25;;
55300;SDS011;58302;51.446;-2.000;2023-06-14T14:49:55;7.75;;;4.65;;
55300;SDS011;58302;51.446;-2.000;2023-06-14T14:52:21;5.95;;;4.80;;
55300;SDS011;58302;51.446;-2.000;2023-06-14T14:54:47;6.38;;;4.65;;
55300;SDS011;58302;51.446;-2.000;2023-06-14T14:57:13;5.75;;;4.43;;
55300;SDS011;58302;51.446;-2.000;2023-06-14T14:59:39;5.50;;;4.60;;
55300;SDS011;58302;51.446;-2.000;2023-06-14T15:02:05;8.00;;;5.25;;